Time;durP1;ratioP1;P1;durP2;ratioP2;P2;SDS_P1;SDS_P2;PMS_P1;PMS_P2;Temp;Humidity;BMP_temperature;BMP_pressure;BME280_temperature;BME280_humidity;BME280_pressure;Samples;Min_cycle;Max_cycle;Signal;HPM_P1;HPM_P2
2022/08/24 00:01:22;;;;;;;3.45;3.05;;;23.20;63.10;;;;;;5031199;28;20246;-70
2022/08/24 00:03:48;;;;;;;3.50;3.20;;;23.20;63.00;;;;;;5014450;28;20647;-70
2022/08/24 00:06:20;;;;;;;3.28;2.97;;;23.20;63.00;;;;;;5030872;28;20730;-70
2022/08/24 00:08:49;;;;;;;3.42;2.97;;;23.20;63.00;;;;;;5030799;28;20234;-70
2022/08/24 00:11:17;;;;;;;3.78;3.40;;;23.20;63.00;;;;;;5030361;28;20191;-71
2022/08/24 00:13:44;;;;;;;3.13;2.85;;;23.20;63.10;;;;;;5031919;28;20218;-70
2022/08/24 00:16:11;;;;;;;3.05;2.80;;;23.20;63.10;;;;;;5014410;28;20214;-70
2022/08/24 00:18:38;;;;;;;3.30;3.00;;;23.20;63.10;;;;;;5032033;28;20215;-70
2022/08/24 00:21:06;;;;;;;2.85;2.65;;;23.20;63.10;;;;;;5030187;28;20218;-70
2022/08/24 00:23:34;;;;;;;3.08;2.75;;;23.30;63.20;;;;;;5031882;28;20187;-70
2022/08/24 00:25:59;;;;;;;3.00;2.80;;;23.20;63.00;;;;;;5030683;28;20183;-70
2022/08/24 00:28:26;;;;;;;3.70;3.40;;;23.20;63.00;;;;;;5014414;28;20805;-70
2022/08/24 00:30:52;;;;;;;2.97;2.75;;;23.20;63.00;;;;;;5030409;28;20191;-70
2022/08/24 00:33:18;;;;;;;3.10;2.90;;;23.20;63.00;;;;;;5031994;28;20171;-70
2022/08/24 00:35:44;;;;;;;3.33;3.00;;;23.20;63.00;;;;;;5014131;28;20274;-70
2022/08/24 00:38:10;;;;;;;3.28;2.97;;;23.20;63.00;;;;;;5047230;28;20207;-71
2022/08/24 00:40:41;;;;;;;3.10;2.80;;;23.20;63.10;;;;;;5030370;28;20227;-70
2022/08/24 00:43:10;;;;;;;3.40;3.10;;;23.20;63.00;;;;;;5030962;28;20172;-70
2022/08/24 00:45:49;;;;;;;3.05;2.80;;;23.20;63.00;;;;;;5030487;28;20183;-70
2022/08/24 00:48:26;;;;;;;3.47;3.17;;;23.20;63.10;;;;;;5030423;28;20215;-70
2022/08/24 00:50:59;;;;;;;3.05;2.75;;;23.20;63.00;;;;;;5034266;28;20167;-70
2022/08/24 00:53:44;;;;;;;3.35;3.05;;;23.20;63.10;;;;;;5017615;28;20183;-70
2022/08/24 00:56:19;;;;;;;3.20;2.90;;;23.20;63.10;;;;;;5034323;28;20179;-70
2022/08/24 00:58:56;;;;;;;3.30;3.10;;;23.20;63.00;;;;;;5034018;28;20210;-70
2022/08/24 01:01:24;;;;;;;2.88;2.67;;;23.20;63.00;;;;;;5016676;28;20617;-70
2022/08/24 01:03:50;;;;;;;3.20;2.90;;;23.20;63.00;;;;;;5033880;28;20205;-70
2022/08/24 01:06:17;;;;;;;3.20;2.97;;;23.20;63.00;;;;;;5035026;28;20643;-70
2022/08/24 01:08:44;;;;;;;2.85;2.53;;;23.10;62.90;;;;;;5017250;28;20207;-70
2022/08/24 01:11:16;;;;;;;2.88;2.67;;;23.20;63.00;;;;;;5033147;28;20187;-70
2022/08/24 01:13:47;;;;;;;3.50;2.90;;;23.10;62.90;;;;;;5033715;28;20187;-70
2022/08/24 01:18:48;;;;;;;3.17;2.97;;;23.20;63.00;;;;;;5032697;28;20191;-70
2022/08/24 01:19:02;;;;;;;2.70;2.50;;;23.10;62.90;;;;;;5033163;28;20211;-70
2022/08/24 01:21:44;;;;;;;3.00;2.80;;;23.20;63.10;;;;;;5032402;28;20183;-70
2022/08/24 01:24:12;;;;;;;2.75;2.55;;;23.10;63.00;;;;;;5032961;28;20275;-70
2022/08/24 01:26:49;;;;;;;2.80;2.60;;;23.10;62.90;;;;;;5016390;28;20270;-70
2022/08/24 01:29:26;;;;;;;2.80;2.60;;;23.10;62.90;;;;;;5033405;28;20202;-70
2022/08/24 01:31:52;;;;;;;2.78;2.58;;;23.10;62.90;;;;;;5034128;28;20736;-70
2022/08/24 01:34:20;;;;;;;2.70;2.50;;;23.10;62.90;;;;;;5033640;28;20635;-71
2022/08/24 01:36:55;;;;;;;2.85;2.65;;;23.20;63.00;;;;;;5017291;28;20179;-70
2022/08/24 01:39:33;;;;;;;3.17;2.88;;;23.10;62.90;;;;;;5033544;28;20282;-70
2022/08/24 01:41:59;;;;;;;3.47;3.17;;;23.10;62.90;;;;;;5032702;28;20183;-70
2022/08/24 01:44:29;;;;;;;3.63;2.90;;;23.10;63.00;;;;;;5033269;28;20266;-70
2022/08/24 01:46:56;;;;;;;3.05;2.85;;;23.10;63.00;;;;;;5033137;28;20183;-70
2022/08/24 01:49:29;;;;;;;2.95;2.75;;;23.20;63.00;;;;;;5016546;28;20333;-70
2022/08/24 01:51:56;;;;;;;4.47;2.88;;;23.10;62.90;;;;;;5032542;28;20183;-70
2022/08/24 01:54:22;;;;;;;3.58;3.28;;;23.10;63.00;;;;;;5033026;28;20198;-70
2022/08/24 01:56:48;;;;;;;3.50;3.03;;;23.10;62.90;;;;;;5032696;28;20188;-70
2022/08/24 01:59:15;;;;;;;3.03;2.72;;;23.10;62.90;;;;;;5032799;28;20230;-70
2022/08/24 02:01:54;;;;;;;3.22;2.92;;;23.10;62.90;;;;;;5031799;28;20191;-70
2022/08/24 02:04:20;;;;;;;2.90;2.70;;;23.10;62.90;;;;;;5033185;28;20222;-70
2022/08/24 02:06:47;;;;;;;2.65;2.45;;;23.10;62.90;;;;;;5033075;28;20207;-70
2022/08/24 02:09:14;;;;;;;3.00;2.70;;;23.10;62.90;;;;;;5032876;28;20228;-70
2022/08/24 02:11:41;;;;;;;2.78;2.58;;;23.10;62.90;;;;;;5032098;28;20216;-70
2022/08/24 02:14:10;;;;;;;3.13;2.80;;;23.10;62.90;;;;;;5032919;28;20190;-70
2022/08/24 02:16:36;;;;;;;3.22;2.92;;;23.10;62.90;;;;;;5029864;28;20195;-70
2022/08/24 02:19:05;;;;;;;3.65;3.28;;;23.10;62.90;;;;;;5032314;28;20207;-71
2022/08/24 02:21:31;;;;;;;2.78;2.58;;;23.10;62.90;;;;;;5015629;28;20210;-71
2022/08/24 02:23:57;;;;;;;2.97;2.67;;;23.10;62.90;;;;;;5032310;28;20215;-71
2022/08/24 02:26:23;;;;;;;2.97;2.78;;;23.10;62.90;;;;;;5015756;28;20225;-70
2022/08/24 02:28:50;;;;;;;2.75;2.55;;;23.10;62.90;;;;;;5048884;28;20203;-70
2022/08/24 02:31:16;;;;;;;3.03;2.83;;;23.10;62.90;;;;;;5031730;28;20635;-70
2022/08/24 02:33:43;;;;;;;2.60;2.40;;;23.10;62.90;;;;;;5032543;28;20187;-71
2022/08/24 02:36:11;;;;;;;2.85;2.65;;;23.10;62.90;;;;;;5048731;28;20179;-71
2022/08/24 02:38:38;;;;;;;2.88;2.67;;;23.10;62.90;;;;;;5015802;28;20206;-71
2022/08/24 02:41:10;;;;;;;3.05;2.83;;;23.10;62.90;;;;;;5031530;28;20203;-70
2022/08/24 02:43:36;;;;;;;3.15;2.83;;;23.10;62.90;;;;;;5032419;28;20237;-70
2022/08/24 02:46:02;;;;;;;2.60;2.40;;;23.10;62.90;;;;;;5032331;28;20187;-70
2022/08/24 02:48:28;;;;;;;2.85;2.65;;;23.00;62.80;;;;;;5032227;28;20214;-70
2022/08/24 02:50:55;;;;;;;2.67;2.47;;;23.00;62.70;;;;;;5031658;28;20677;-70
2022/08/24 02:53:22;;;;;;;2.72;2.50;;;23.10;62.80;;;;;;5032035;28;20705;-70
2022/08/24 02:55:49;;;;;;;2.90;2.70;;;23.00;62.70;;;;;;5032174;28;20302;-70
2022/08/24 02:58:17;;;;;;;3.00;2.70;;;23.00;62.80;;;;;;5032012;28;20706;-70
2022/08/24 03:00:47;;;;;;;3.22;2.92;;;23.10;62.80;;;;;;5031779;28;20626;-70
2022/08/24 03:03:15;;;;;;;2.58;2.35;;;23.10;62.80;;;;;;5031632;28;20214;-70
2022/08/24 03:05:41;;;;;;;2.78;2.58;;;23.00;62.70;;;;;;5031708;28;20210;-70
2022/08/24 03:08:07;;;;;;;2.75;2.55;;;23.00;62.70;;;;;;5031535;28;20230;-70
2022/08/24 03:10:34;;;;;;;2.88;2.67;;;23.00;63.60;;;;;;5011100;28;20187;-70
2022/08/24 03:13:01;;;;;;;3.00;2.70;;;23.00;62.80;;;;;;5010871;28;20184;-70
2022/08/24 03:15:28;;;;;;;2.63;2.40;;;23.00;62.70;;;;;;5012092;28;20192;-70
2022/08/24 03:17:55;;;;;;;2.78;2.58;;;23.00;62.70;;;;;;5011731;28;20238;-71
2022/08/24 03:20:22;;;;;;;3.10;2.80;;;23.00;62.80;;;;;;5011738;28;20212;-71
2022/08/24 03:22:49;;;;;;;2.60;2.40;;;23.00;62.80;;;;;;5011558;28;20203;-70
2022/08/24 03:25:19;;;;;;;2.40;2.20;;;23.00;62.80;;;;;;5011671;28;20242;-70
2022/08/24 03:27:45;;;;;;;2.50;2.30;;;23.00;62.70;;;;;;5011919;28;20179;-70
2022/08/24 03:30:14;;;;;;;2.92;2.72;;;23.00;62.70;;;;;;4995229;28;20188;-70
2022/08/24 03:32:41;;;;;;;2.63;2.42;;;23.00;62.70;;;;;;5010878;28;20187;-70
2022/08/24 03:35:10;;;;;;;2.47;2.30;;;23.00;62.70;;;;;;5011440;28;20694;-70
2022/08/24 03:37:36;;;;;;;2.70;2.50;;;23.00;62.70;;;;;;4995367;28;20647;-70
2022/08/24 03:40:05;;;;;;;2.70;2.50;;;23.00;62.70;;;;;;5011534;28;20706;-70
2022/08/24 03:42:32;;;;;;;2.60;2.40;;;22.90;62.60;;;;;;5027382;28;20214;-70
2022/08/24 03:44:59;;;;;;;2.75;2.53;;;23.00;62.70;;;;;;5011429;28;20176;-70
2022/08/24 03:47:25;;;;;;;3.00;2.80;;;22.90;62.60;;;;;;5028023;28;20176;-70
2022/08/24 03:49:52;;;;;;;2.60;2.40;;;23.00;62.70;;;;;;5011320;28;20207;-70
2022/08/24 03:52:18;;;;;;;2.85;2.58;;;22.90;62.60;;;;;;5010821;28;20194;-70
2022/08/24 03:54:44;;;;;;;3.70;2.72;;;22.90;62.60;;;;;;5027675;28;20282;-70
2022/08/24 03:57:10;;;;;;;2.92;2.72;;;22.90;62.60;;;;;;5011677;28;20621;-70
2022/08/24 03:59:36;;;;;;;2.53;2.30;;;23.00;62.70;;;;;;5010587;28;20230;-70
2022/08/24 04:02:03;;;;;;;2.80;2.60;;;23.00;62.70;;;;;;5011922;28;20180;-70
2022/08/24 04:04:30;;;;;;;2.83;2.63;;;23.00;62.70;;;;;;5011281;28;20179;-70
2022/08/24 04:06:57;;;;;;;2.83;2.53;;;22.90;62.60;;;;;;5011154;28;20180;-70
2022/08/24 04:09:26;;;;;;;3.00;2.80;;;22.90;62.60;;;;;;5011053;28;20202;-70
2022/08/24 04:11:51;;;;;;;2.78;2.58;;;23.00;62.70;;;;;;5010499;28;20271;-70
2022/08/24 04:14:19;;;;;;;2.88;2.67;;;22.90;62.60;;;;;;5011350;28;20231;-70
2022/08/24 04:16:49;;;;;;;2.80;2.40;;;23.00;62.70;;;;;;5011231;28;20278;-70
2022/08/24 04:19:23;;;;;;;2.95;2.70;;;22.90;62.50;;;;;;5011231;28;20208;-70
2022/08/24 04:21:48;;;;;;;2.65;2.45;;;22.90;62.50;;;;;;5010864;28;20195;-70
2022/08/24 04:24:18;;;;;;;2.50;2.30;;;22.90;62.50;;;;;;4995511;28;20191;-70
2022/08/24 04:26:45;;;;;;;2.78;2.58;;;22.90;62.50;;;;;;4998888;28;20262;-70
2022/08/24 04:29:15;;;;;;;2.67;2.47;;;22.90;62.50;;;;;;5014953;28;20238;-70
2022/08/24 04:31:47;;;;;;;3.20;2.40;;;22.90;62.50;;;;;;5014302;28;20180;-70
2022/08/24 04:34:17;;;;;;;2.83;2.63;;;22.90;62.60;;;;;;5014915;28;20184;-70
2022/08/24 04:36:45;;;;;;;2.90;2.70;;;22.90;62.50;;;;;;5014520;28;20184;-70
2022/08/24 04:39:12;;;;;;;2.75;2.55;;;22.90;62.50;;;;;;5031130;28;20209;-70
2022/08/24 04:41:44;;;;;;;2.78;2.58;;;22.90;62.50;;;;;;5014537;28;20223;-70
2022/08/24 04:44:10;;;;;;;2.20;2.10;;;22.90;62.60;;;;;;5014567;28;20219;-70
2022/08/24 04:46:38;;;;;;;3.80;2.75;;;22.90;62.50;;;;;;5030921;28;20177;-70
2022/08/24 04:49:04;;;;;;;2.60;2.40;;;22.90;62.60;;;;;;5014326;28;20298;-70
2022/08/24 04:51:31;;;;;;;2.63;2.42;;;22.90;62.50;;;;;;5013951;28;20184;-70
2022/08/24 04:53:57;;;;;;;2.80;2.60;;;22.90;62.50;;;;;;5014353;28;20187;-70
2022/08/24 04:56:25;;;;;;;2.70;2.50;;;22.90;62.50;;;;;;4997994;28;20195;-70
2022/08/24 04:58:54;;;;;;;2.58;2.38;;;22.90;62.50;;;;;;4998341;28;20204;-70
2022/08/24 05:01:27;;;;;;;2.60;2.42;;;22.90;62.50;;;;;;5013132;28;20312;-70
2022/08/24 05:03:55;;;;;;;2.45;2.30;;;22.90;62.50;;;;;;4997998;28;20184;-70
2022/08/24 05:06:25;;;;;;;2.92;2.72;;;22.90;62.50;;;;;;5014113;28;20227;-70
2022/08/24 05:08:51;;;;;;;2.13;2.03;;;22.90;62.50;;;;;;4997728;28;20239;-70
2022/08/24 05:11:20;;;;;;;2.25;2.13;;;22.90;62.50;;;;;;5013511;28;20725;-70
2022/08/24 05:13:46;;;;;;;2.28;2.15;;;22.90;62.50;;;;;;5013995;28;20647;-71
2022/08/24 05:16:16;;;;;;;2.90;2.70;;;22.90;62.50;;;;;;5013421;28;20188;-70
2022/08/24 05:18:43;;;;;;;2.35;2.25;;;22.80;62.40;;;;;;5013711;28;20206;-70
2022/08/24 05:21:13;;;;;;;2.80;2.60;;;22.90;62.50;;;;;;4996958;28;20243;-71
2022/08/24 05:23:41;;;;;;;2.70;2.50;;;22.90;62.50;;;;;;4997873;28;20187;-70
2022/08/24 05:26:18;;;;;;;2.55;2.35;;;22.90;62.50;;;;;;5013646;28;20191;-70
2022/08/24 05:28:46;;;;;;;2.38;2.17;;;22.80;62.50;;;;;;5013632;28;20200;-70
2022/08/24 05:31:17;;;;;;;2.33;2.20;;;22.90;62.60;;;;;;5029712;28;20184;-70
2022/08/24 05:33:44;;;;;;;2.50;2.30;;;22.80;62.50;;;;;;4997338;28;20186;-70
2022/08/24 05:36:33;;;;;;;2.55;2.35;;;22.80;62.50;;;;;;4996306;28;20190;-71
2022/08/24 05:39:06;;;;;;;2.47;2.30;;;22.80;62.50;;;;;;5013508;28;20211;-70
2022/08/24 05:41:33;;;;;;;2.67;2.47;;;22.90;62.60;;;;;;4996691;28;20212;-71
2022/08/24 05:44:08;;;;;;;2.35;2.10;;;22.90;62.50;;;;;;5030108;28;20273;-71
2022/08/24 05:46:34;;;;;;;2.63;2.33;;;22.80;62.50;;;;;;5013762;28;20263;-70
2022/08/24 05:49:01;;;;;;;2.78;2.58;;;22.90;62.60;;;;;;5008966;28;20314;-70
2022/08/24 05:51:32;;;;;;;2.42;2.22;;;22.90;62.70;;;;;;5049285;28;20183;-71
2022/08/24 05:54:05;;;;;;;2.30;2.20;;;22.80;62.60;;;;;;5033381;28;20332;-70
2022/08/24 05:56:53;;;;;;;2.72;2.53;;;22.90;62.70;;;;;;5049608;28;20266;-70
2022/08/24 05:59:21;;;;;;;2.67;2.47;;;22.80;62.60;;;;;;5032865;28;20595;-71
2022/08/24 06:01:48;;;;;;;2.60;2.40;;;22.90;62.70;;;;;;5032379;28;20187;-71
2022/08/24 06:04:14;;;;;;;2.53;2.35;;;22.80;62.50;;;;;;5016720;28;20183;-71
2022/08/24 06:06:41;;;;;;;2.42;2.22;;;22.90;62.60;;;;;;5033037;28;20325;-70
2022/08/24 06:09:11;;;;;;;2.30;2.20;;;22.90;62.60;;;;;;5016285;28;20199;-71
2022/08/24 06:11:39;;;;;;;2.47;2.28;;;22.90;62.60;;;;;;5031481;28;20225;-71
2022/08/24 06:14:10;;;;;;;2.35;2.25;;;22.90;62.50;;;;;;5048679;28;20266;-71
2022/08/24 06:16:46;;;;;;;2.33;2.13;;;22.90;62.50;;;;;;5047952;28;20242;-71
2022/08/24 06:19:16;;;;;;;2.40;2.20;;;22.90;62.50;;;;;;5032094;28;20207;-71
2022/08/24 06:21:45;;;;;;;2.92;2.72;;;22.90;62.50;;;;;;5015466;28;20184;-71
2022/08/24 06:24:14;;;;;;;2.90;2.70;;;22.90;62.50;;;;;;5015499;28;20183;-70
2022/08/24 06:29:28;;;;;;;2.40;2.20;;;22.90;62.60;;;;;;5032004;28;20211;-71
2022/08/24 06:32:00;;;;;;;2.42;2.17;;;22.90;62.60;;;;;;5031462;28;20180;-71
2022/08/24 06:34:26;;;;;;;2.42;2.22;;;22.90;62.70;;;;;;5032178;28;20172;-71
2022/08/24 06:36:52;;;;;;;2.15;2.00;;;22.90;62.60;;;;;;5015626;28;20183;-71
2022/08/24 06:39:18;;;;;;;2.35;2.15;;;22.90;62.70;;;;;;5028531;28;20210;-71
2022/08/24 06:41:45;;;;;;;3.25;2.20;;;22.90;62.60;;;;;;5020780;28;20186;-71
2022/08/24 06:44:16;;;;;;;2.67;2.47;;;22.90;62.70;;;;;;5016067;28;20277;-71
2022/08/24 06:46:51;;;;;;;2.67;2.47;;;22.90;62.60;;;;;;5030419;28;20179;-71
2022/08/24 06:49:18;;;;;;;2.42;2.33;;;22.90;62.70;;;;;;5031884;28;20210;-70
2022/08/24 06:51:44;;;;;;;2.80;2.50;;;22.90;62.80;;;;;;5031476;28;20223;-71
2022/08/24 06:54:10;;;;;;;3.47;2.53;;;22.90;62.80;;;;;;5031897;28;20646;-71
2022/08/24 06:56:37;;;;;;;2.42;2.22;;;22.90;62.80;;;;;;5031519;28;20187;-70
2022/08/24 06:59:04;;;;;;;2.60;2.40;;;22.90;62.80;;;;;;5032073;28;20211;-70
2022/08/24 07:01:31;;;;;;;2.80;2.60;;;22.90;62.80;;;;;;5030876;28;20212;-70
2022/08/24 07:03:59;;;;;;;2.40;2.30;;;22.90;62.90;;;;;;5031886;28;20183;-71
2022/08/24 07:06:44;;;;;;;2.60;2.40;;;22.90;62.90;;;;;;5032145;28;20182;-70
2022/08/24 07:09:11;;;;;;;4.00;2.30;;;22.90;63.00;;;;;;5031587;28;20203;-70
2022/08/24 07:11:37;;;;;;;2.78;2.58;;;22.90;62.90;;;;;;5032819;28;20179;-71
2022/08/24 07:14:03;;;;;;;2.50;2.30;;;22.90;63.00;;;;;;5031295;28;20176;-70
2022/08/24 07:16:30;;;;;;;2.70;2.50;;;22.90;63.00;;;;;;5031224;28;20274;-70
2022/08/24 07:19:01;;;;;;;2.75;2.55;;;23.00;63.10;;;;;;5015681;28;20222;-71
2022/08/24 07:21:27;;;;;;;2.72;2.53;;;23.00;63.10;;;;;;5030732;28;20305;-71
2022/08/24 07:23:58;;;;;;;2.30;2.20;;;23.00;63.30;;;;;;5031581;28;20180;-71
2022/08/24 07:26:28;;;;;;;4.05;2.72;;;23.00;63.30;;;;;;5047637;28;20225;-70
2022/08/24 07:29:03;;;;;;;2.35;2.20;;;23.00;63.40;;;;;;5014936;28;20686;-70
2022/08/24 07:31:35;;;;;;;2.90;2.70;;;23.00;63.20;;;;;;5030752;28;20269;-71
2022/08/24 07:34:10;;;;;;;2.70;2.50;;;23.00;63.10;;;;;;5047918;28;20187;-71
2022/08/24 07:36:41;;;;;;;2.67;2.47;;;23.00;63.20;;;;;;5015061;28;20187;-71
2022/08/24 07:39:08;;;;;;;2.70;2.50;;;23.00;63.20;;;;;;5031322;28;20214;-71
2022/08/24 07:41:43;;;;;;;3.05;2.75;;;23.10;64.40;;;;;;5030925;28;20213;-71
2022/08/24 07:44:11;;;;;;;4.05;2.70;;;23.10;63.70;;;;;;5047829;28;20226;-71
2022/08/24 07:46:39;;;;;;;5.50;3.33;;;23.10;64.20;;;;;;5031412;28;20183;-72
2022/08/24 07:49:07;;;;;;;3.55;2.70;;;23.20;64.30;;;;;;5031390;28;20198;-72
2022/08/24 07:51:35;;;;;;;3.38;2.55;;;23.20;64.40;;;;;;5030853;28;20171;-70
2022/08/24 07:54:01;;;;;;;5.20;2.90;;;23.20;64.30;;;;;;5031115;28;20227;-70
2022/08/24 07:56:33;;;;;;;3.88;2.90;;;23.30;64.40;;;;;;5015499;28;20199;-71
2022/08/24 07:59:01;;;;;;;3.97;2.63;;;23.30;64.10;;;;;;5015044;28;20560;-71
2022/08/24 08:01:27;;;;;;;2.67;2.38;;;23.30;64.20;;;;;;5034435;28;20260;-70
2022/08/24 08:03:53;;;;;;;3.58;2.58;;;23.30;64.10;;;;;;5035370;28;20217;-71
2022/08/24 08:06:19;;;;;;;3.78;2.92;;;23.30;64.10;;;;;;5014136;28;20180;-71
2022/08/24 08:08:47;;;;;;;4.57;2.75;;;23.40;64.00;;;;;;5034357;28;20286;-71
2022/08/24 08:11:13;;;;;;;4.28;2.22;;;23.40;64.00;;;;;;5034390;28;20298;-71
2022/08/24 08:13:39;;;;;;;3.88;2.22;;;23.40;63.90;;;;;;5035236;28;20266;-71
2022/08/24 08:16:06;;;;;;;3.45;2.50;;;23.40;63.90;;;;;;5018218;28;20210;-71
2022/08/24 08:18:32;;;;;;;2.22;2.03;;;23.40;63.80;;;;;;5035130;28;20264;-71
2022/08/24 08:21:04;;;;;;;3.15;2.05;;;23.40;63.80;;;;;;5034713;28;20285;-70
2022/08/24 08:26:24;;;;;;;2.95;2.28;;;23.40;63.60;;;;;;5034408;28;20201;-71
2022/08/24 08:29:13;;;;;;;2.85;2.00;;;23.50;63.60;;;;;;5037245;28;20244;-71
2022/08/24 08:31:41;;;;;;;3.05;2.45;;;23.40;63.20;;;;;;5016238;28;20278;-70
2022/08/24 08:34:08;;;;;;;2.50;2.30;;;23.40;63.10;;;;;;5035728;28;20187;-70
2022/08/24 08:36:39;;;;;;;2.25;2.05;;;23.50;63.10;;;;;;5034553;28;20187;-70
2022/08/24 08:39:09;;;;;;;1.85;1.67;;;23.50;62.60;;;;;;5034293;28;20203;-70
2022/08/24 08:42:02;;;;;;;2.15;1.83;;;23.50;62.70;;;;;;5017490;28;20214;-71
2022/08/24 08:45:08;;;;;;;3.08;2.17;;;23.50;62.60;;;;;;5018614;28;20179;-71
2022/08/24 08:48:18;;;;;;;3.63;1.90;;;23.50;62.60;;;;;;5034476;28;20175;-71
2022/08/24 08:51:07;;;;;;;2.42;2.03;;;23.50;62.60;;;;;;5034514;28;20214;-71
2022/08/24 08:54:03;;;;;;;2.33;2.13;;;23.60;62.60;;;;;;5034510;28;20681;-71
2022/08/24 08:57:31;;;;;;;2.35;2.15;;;23.60;62.50;;;;;;5034061;28;20179;-71
2022/08/24 09:00:21;;;;;;;3.45;2.20;;;23.60;62.50;;;;;;5001868;28;20273;-71
2022/08/24 09:03:08;;;;;;;2.20;1.98;;;23.60;62.20;;;;;;5033944;28;20182;-70
2022/08/24 09:06:26;;;;;;;2.72;2.00;;;23.60;62.00;;;;;;5033930;28;20237;-70
2022/08/24 09:09:08;;;;;;;1.88;1.60;;;23.60;61.80;;;;;;5034161;28;20272;-70
2022/08/24 09:12:05;;;;;;;3.35;2.33;;;23.60;62.00;;;;;;5017043;28;20187;-70
2022/08/24 09:14:40;;;;;;;2.03;1.83;;;23.60;61.80;;;;;;5034210;28;20175;-71
2022/08/24 09:17:44;;;;;;;2.10;1.90;;;23.70;61.90;;;;;;5017396;28;20221;-70
2022/08/24 09:21:09;;;;;;;2.40;1.85;;;23.70;61.60;;;;;;5033001;28;20226;-70
2022/08/24 09:24:15;;;;;;;3.85;2.20;;;23.70;61.50;;;;;;5033536;28;20164;-71
2022/08/24 09:28:08;;;;;;;1.88;1.77;;;23.70;61.60;;;;;;5017626;28;20195;-70
2022/08/24 09:31:26;;;;;;;2.10;2.00;;;23.70;61.50;;;;;;5032206;28;20230;-70
2022/08/24 09:34:14;;;;;;;1.98;1.85;;;23.70;61.40;;;;;;5033545;28;20250;-71
2022/08/24 09:37:23;;;;;;;3.20;2.03;;;23.70;61.50;;;;;;5033385;28;20187;-71
2022/08/24 09:40:02;;;;;;;1.85;1.73;;;23.80;61.70;;;;;;5033105;28;20219;-71
2022/08/24 09:42:36;;;;;;;1.98;1.70;;;23.80;61.60;;;;;;5016336;28;20194;-71
2022/08/24 09:45:33;;;;;;;2.58;1.95;;;23.70;61.30;;;;;;5017083;28;20175;-71
2022/08/24 09:48:50;;;;;;;1.98;1.83;;;23.70;61.10;;;;;;5033163;28;20321;-71
2022/08/24 09:51:55;;;;;;;2.25;1.90;;;23.80;61.10;;;;;;5032215;28;20219;-71
2022/08/24 09:54:50;;;;;;;2.35;1.85;;;23.70;60.90;;;;;;5033022;28;20195;-71
2022/08/24 09:57:43;;;;;;;1.67;1.58;;;23.70;60.90;;;;;;5016770;28;20175;-71
2022/08/24 10:00:23;;;;;;;1.80;1.70;;;23.70;60.80;;;;;;5032718;28;20211;-71
2022/08/24 10:03:01;;;;;;;2.33;2.13;;;23.80;60.90;;;;;;5032540;28;20221;-71
2022/08/24 10:05:42;;;;;;;2.78;1.77;;;23.80;60.80;;;;;;5033027;28;20172;-71
2022/08/24 10:08:46;;;;;;;3.20;1.95;;;23.80;60.80;;;;;;5032853;28;20206;-71
2022/08/24 10:11:39;;;;;;;1.85;1.70;;;23.80;61.60;;;;;;5015911;28;20179;-70
2022/08/24 10:15:01;;;;;;;1.90;1.80;;;23.80;60.80;;;;;;5034040;28;20167;-71
2022/08/24 10:18:24;;;;;;;2.83;1.77;;;23.80;60.80;;;;;;5032509;28;20203;-71
2022/08/24 10:21:23;;;;;;;2.55;2.35;;;23.80;61.20;;;;;;5032345;28;20279;-72
2022/08/24 10:24:22;;;;;;;2.67;2.42;;;23.80;61.50;;;;;;5031989;28;20180;-71
2022/08/24 10:27:03;;;;;;;2.28;2.08;;;23.80;61.70;;;;;;5032407;28;20695;-72
2022/08/24 10:29:47;;;;;;;2.88;2.35;;;23.80;61.90;;;;;;5015730;28;20222;-72
2022/08/24 10:32:50;;;;;;;2.65;2.45;;;23.80;62.70;;;;;;5031831;28;20278;-72
2022/08/24 10:35:35;;;;;;;2.90;2.45;;;23.80;63.50;;;;;;5033507;28;20211;-72
2022/08/24 10:41:45;;;;;;;3.70;3.40;;;23.80;64.60;;;;;;5032414;28;20226;-72
2022/08/24 10:44:47;;;;;;;2.97;2.78;;;23.80;65.00;;;;;;5015654;28;20232;-72
2022/08/24 10:48:30;;;;;;;4.55;3.33;;;23.90;65.40;;;;;;5015935;28;20205;-72
2022/08/24 10:51:28;;;;;;;4.53;2.85;;;23.90;65.10;;;;;;4973888;28;20191;-72
2022/08/24 10:53:55;;;;;;;3.42;2.58;;;23.90;65.10;;;;;;5033216;28;20217;-72
2022/08/24 10:57:06;;;;;;;3.38;2.60;;;23.90;64.70;;;;;;5031964;28;20274;-72
2022/08/24 10:59:58;;;;;;;2.85;2.53;;;23.90;64.30;;;;;;4974882;28;20224;-71
2022/08/24 11:02:37;;;;;;;3.25;2.70;;;23.90;64.30;;;;;;4958686;28;20200;-71
2022/08/24 11:05:13;;;;;;;2.97;2.20;;;23.90;64.10;;;;;;5018708;28;20267;-71
2022/08/24 11:07:57;;;;;;;2.85;2.30;;;23.90;64.10;;;;;;5031728;28;20293;-71
2022/08/24 11:10:31;;;;;;;2.83;2.30;;;23.90;64.00;;;;;;5032177;28;20191;-71
2022/08/24 11:13:16;;;;;;;2.72;2.10;;;23.90;64.00;;;;;;5031091;28;20278;-70
2022/08/24 11:15:58;;;;;;;2.53;2.33;;;24.00;63.90;;;;;;5031641;28;20171;-71
2022/08/24 11:18:23;;;;;;;4.07;2.53;;;24.00;63.90;;;;;;5048280;28;20221;-71
2022/08/24 11:20:54;;;;;;;2.60;2.40;;;23.90;63.70;;;;;;5032560;28;20191;-71
2022/08/24 11:23:35;;;;;;;2.20;2.00;;;24.00;63.70;;;;;;5047780;28;20187;-71
2022/08/24 11:26:17;;;;;;;2.72;2.10;;;24.00;63.70;;;;;;5031372;28;20635;-71
2022/08/24 11:28:56;;;;;;;3.97;2.08;;;24.00;63.60;;;;;;5047979;28;20217;-71
2022/08/24 11:31:32;;;;;;;3.08;2.13;;;24.00;63.60;;;;;;5047385;28;20202;-70
2022/08/24 11:34:06;;;;;;;2.83;2.08;;;23.90;63.40;;;;;;5030545;28;20187;-71
2022/08/24 11:36:37;;;;;;;2.60;2.08;;;24.00;63.40;;;;;;5032485;28;20253;-70
2022/08/24 11:39:21;;;;;;;3.45;2.00;;;24.00;63.40;;;;;;5031292;28;20286;-71
2022/08/24 11:42:00;;;;;;;2.50;1.92;;;24.00;63.40;;;;;;5030927;28;20697;-70
2022/08/24 11:44:44;;;;;;;2.45;2.25;;;24.00;63.50;;;;;;5031200;28;20199;-70
2022/08/24 11:47:34;;;;;;;2.30;2.10;;;24.00;63.50;;;;;;5047813;28;20215;-71
2022/08/24 11:50:28;;;;;;;4.63;2.22;;;24.00;63.50;;;;;;5031323;28;20778;-71
2022/08/24 11:53:20;;;;;;;3.08;1.98;;;24.00;63.50;;;;;;5031931;28;20180;-71
2022/08/24 11:56:30;;;;;;;4.07;2.28;;;24.00;63.50;;;;;;5014667;28;20191;-70
2022/08/24 11:59:16;;;;;;;2.25;2.05;;;24.00;63.70;;;;;;5014645;28;20214;-71
2022/08/24 12:02:02;;;;;;;3.70;2.00;;;24.00;63.70;;;;;;5013805;28;20218;-70
2022/08/24 12:05:01;;;;;;;2.65;1.80;;;24.00;63.80;;;;;;5031018;28;20274;-70
2022/08/24 12:07:39;;;;;;;2.90;2.05;;;24.00;63.90;;;;;;5014401;28;20631;-71
2022/08/24 12:10:13;;;;;;;3.55;1.85;;;24.00;64.00;;;;;;5031111;28;20293;-71
2022/08/24 12:12:46;;;;;;;2.28;2.08;;;24.00;64.00;;;;;;5030418;28;20254;-71
2022/08/24 12:15:42;;;;;;;2.38;1.98;;;24.00;64.10;;;;;;5014889;28;20578;-71
2022/08/24 12:18:25;;;;;;;2.20;2.10;;;24.00;64.20;;;;;;5030715;28;20242;-71
2022/08/24 12:20:53;;;;;;;2.20;2.05;;;24.00;64.20;;;;;;5032009;28;20215;-71
2022/08/24 12:23:44;;;;;;;2.72;2.10;;;24.00;64.20;;;;;;5014087;28;20282;-70
2022/08/24 12:26:26;;;;;;;2.55;2.17;;;24.00;64.30;;;;;;5030827;28;20191;-71
2022/08/24 12:29:19;;;;;;;2.28;2.10;;;24.00;64.30;;;;;;5032124;28;20216;-70
2022/08/24 12:31:54;;;;;;;3.67;2.20;;;24.00;64.40;;;;;;5021743;28;20195;-71
2022/08/24 12:34:35;;;;;;;2.50;2.30;;;24.00;64.50;;;;;;5011223;28;20176;-71
2022/08/24 12:37:43;;;;;;;2.97;2.15;;;24.10;65.00;;;;;;5000695;28;20179;-71
2022/08/24 12:40:55;;;;;;;4.18;2.40;;;24.00;65.20;;;;;;5026555;28;20283;-71
2022/08/24 12:43:53;;;;;;;2.97;2.33;;;24.10;65.30;;;;;;5010820;28;20234;-71
2022/08/24 12:46:32;;;;;;;2.67;2.47;;;24.10;66.30;;;;;;5018875;28;20187;-71
2022/08/24 12:49:23;;;;;;;3.53;2.55;;;24.10;65.70;;;;;;5017687;28;20211;-71
2022/08/24 12:52:56;;;;;;;3.58;2.42;;;24.10;65.70;;;;;;5034277;28;20176;-71
2022/08/24 12:56:01;;;;;;;2.28;2.08;;;24.10;65.80;;;;;;5021911;28;20293;-72
2022/08/24 12:59:02;;;;;;;2.38;2.03;;;24.10;65.80;;;;;;5018016;28;20631;-71
2022/08/24 13:01:57;;;;;;;3.50;2.17;;;24.10;65.80;;;;;;5033679;28;20253;-72
2022/08/24 13:04:49;;;;;;;2.67;2.03;;;24.10;65.70;;;;;;5029344;28;20183;-72
2022/08/24 13:07:39;;;;;;;2.33;2.08;;;24.10;65.70;;;;;;5014655;28;20180;-71
2022/08/24 13:10:24;;;;;;;3.22;2.22;;;24.10;65.50;;;;;;5014167;28;20191;-72
2022/08/24 13:13:07;;;;;;;2.40;2.20;;;24.10;65.60;;;;;;5014472;28;20191;-72
2022/08/24 13:15:53;;;;;;;2.30;2.00;;;24.10;65.70;;;;;;5013568;28;20245;-71
2022/08/24 13:18:18;;;;;;;2.90;2.22;;;24.10;65.70;;;;;;5013315;28;20228;-72
2022/08/24 13:20:44;;;;;;;6.65;2.22;;;24.10;65.70;;;;;;5014075;28;20273;-72
2022/08/24 13:23:28;;;;;;;3.30;2.30;;;24.10;65.70;;;;;;5012866;28;20208;-73
2022/08/24 13:26:13;;;;;;;2.30;2.10;;;24.10;65.80;;;;;;5024715;28;20186;-72
2022/08/24 13:28:59;;;;;;;2.10;2.00;;;24.10;65.80;;;;;;5033548;28;20214;-71
2022/08/24 13:31:41;;;;;;;3.40;2.20;;;24.10;65.90;;;;;;5033249;28;20202;-72
2022/08/24 13:34:10;;;;;;;2.20;2.00;;;24.10;65.90;;;;;;5010743;28;20191;-71
2022/08/24 13:37:26;;;;;;;2.20;2.10;;;24.10;65.90;;;;;;5034879;28;20191;-72
2022/08/24 13:40:28;;;;;;;2.42;2.22;;;24.10;65.80;;;;;;5006526;28;20258;-71
2022/08/24 13:43:07;;;;;;;2.60;1.80;;;24.10;65.80;;;;;;5005526;28;20226;-72
2022/08/24 13:46:00;;;;;;;2.60;2.00;;;24.10;65.70;;;;;;5033500;28;20657;-72